Time;durP1;ratioP1;P1;durP2;ratioP2;P2;SDS_P1;SDS_P2;PMS_P1;PMS_P2;Temp;Humidity;BMP_temperature;BMP_pressure;BME280_temperature;BME280_humidity;BME280_pressure;Samples;Min_cycle;Max_cycle;Signal;HPM_P1;HPM_P2
2023/11/14 00:00:37;;;;;;;3.97;1.33;;;13.50;90.70;;;;;;4997788;28;20022;-79
2023/11/14 00:03:04;;;;;;;5.25;1.27;;;13.50;90.80;;;;;;4998027;28;20104;-80
2023/11/14 00:05:34;;;;;;;6.32;1.50;;;13.50;90.80;;;;;;4997698;28;20022;-80
2023/11/14 00:08:00;;;;;;;2.13;0.90;;;13.50;90.80;;;;;;4997504;28;20468;-80
2023/11/14 00:10:25;;;;;;;5.43;1.23;;;13.40;90.80;;;;;;4997759;28;20030;-80
2023/11/14 00:12:51;;;;;;;4.85;1.30;;;13.50;90.80;;;;;;4996059;28;20034;-79
2023/11/14 00:15:18;;;;;;;4.93;1.20;;;13.50;90.80;;;;;;4997504;28;20028;-79
2023/11/14 00:17:44;;;;;;;3.97;1.17;;;13.50;90.80;;;;;;4997030;28;20025;-78
2023/11/14 00:20:10;;;;;;;5.63;1.35;;;13.50;90.80;;;;;;4997275;28;20045;-79
2023/11/14 00:22:38;;;;;;;4.97;1.50;;;13.40;90.80;;;;;;5015131;28;20025;-79
2023/11/14 00:25:04;;;;;;;3.58;1.02;;;13.40;90.80;;;;;;4997389;28;20064;-79
2023/11/14 00:27:30;;;;;;;5.78;1.50;;;13.40;90.80;;;;;;5013701;28;20025;-79
2023/11/14 00:29:56;;;;;;;5.68;1.25;;;13.50;90.90;;;;;;5013693;28;20475;-79
2023/11/14 00:32:22;;;;;;;5.13;1.30;;;13.50;90.80;;;;;;4997401;28;20021;-79
2023/11/14 00:34:49;;;;;;;4.38;1.30;;;13.50;90.90;;;;;;4997128;28;20084;-79
2023/11/14 00:37:14;;;;;;;4.65;1.40;;;13.50;90.90;;;;;;4996044;28;20104;-80
2023/11/14 00:39:40;;;;;;;6.15;1.23;;;13.50;91.00;;;;;;4996949;28;20061;-79
2023/11/14 00:42:07;;;;;;;4.63;1.25;;;13.40;90.80;;;;;;4997093;28;20121;-79
2023/11/14 00:44:33;;;;;;;7.05;1.70;;;13.40;90.80;;;;;;4996855;28;20072;-79
2023/11/14 00:46:58;;;;;;;4.38;1.08;;;13.40;90.80;;;;;;4996638;28;20438;-79
2023/11/14 00:49:24;;;;;;;3.72;0.98;;;13.50;90.80;;;;;;4997005;28;20064;-79
2023/11/14 00:51:50;;;;;;;4.63;1.20;;;13.40;90.80;;;;;;4996805;28;20635;-80
2023/11/14 00:54:15;;;;;;;3.53;1.20;;;13.40;90.80;;;;;;5014382;28;20021;-79
2023/11/14 00:56:41;;;;;;;3.97;1.00;;;13.50;90.80;;;;;;4996513;28;20383;-79
2023/11/14 00:59:08;;;;;;;3.88;1.13;;;13.50;90.70;;;;;;5014374;28;20021;-79
2023/11/14 01:01:34;;;;;;;5.30;1.20;;;13.50;90.70;;;;;;4996763;28;20018;-79
2023/11/14 01:03:59;;;;;;;5.28;1.20;;;13.50;90.60;;;;;;4996571;28;20112;-79
2023/11/14 01:06:26;;;;;;;4.35;1.27;;;13.50;90.60;;;;;;5013825;28;20026;-78
2023/11/14 01:08:52;;;;;;;5.45;1.30;;;13.50;90.60;;;;;;5014093;28;20053;-78
2023/11/14 01:11:17;;;;;;;4.28;1.33;;;13.60;90.50;;;;;;4996605;28;20056;-79
2023/11/14 01:13:44;;;;;;;4.68;1.10;;;13.60;90.50;;;;;;4996299;28;20050;-79
2023/11/14 01:16:14;;;;;;;4.40;1.10;;;13.60;90.50;;;;;;4996294;28;20072;-80
2023/11/14 01:18:40;;;;;;;5.45;1.25;;;13.60;90.60;;;;;;4995970;28;20021;-80
2023/11/14 01:21:06;;;;;;;4.90;1.40;;;13.60;90.60;;;;;;4996207;28;20113;-79
2023/11/14 01:23:32;;;;;;;4.07;1.20;;;13.50;90.60;;;;;;4996109;28;20014;-80
2023/11/14 01:25:57;;;;;;;3.30;1.10;;;13.50;90.60;;;;;;4996301;28;20018;-80
2023/11/14 01:28:23;;;;;;;5.57;1.38;;;13.40;90.60;;;;;;4995888;28;20025;-79
2023/11/14 01:30:48;;;;;;;4.15;1.25;;;13.50;90.70;;;;;;4996147;28;20113;-79
2023/11/14 01:33:14;;;;;;;4.93;1.40;;;13.50;90.70;;;;;;4996214;28;20049;-79
2023/11/14 01:35:40;;;;;;;4.18;1.13;;;13.50;90.70;;;;;;4996136;28;20030;-78
2023/11/14 01:38:05;;;;;;;3.88;1.13;;;13.50;90.80;;;;;;4995412;28;20029;-79
2023/11/14 01:40:30;;;;;;;4.35;1.23;;;13.50;90.80;;;;;;5013458;28;20522;-79
2023/11/14 01:43:03;;;;;;;5.75;1.13;;;13.50;90.80;;;;;;4995742;28;20059;-79
2023/11/14 01:45:30;;;;;;;3.13;1.13;;;13.40;90.80;;;;;;4995796;28;20022;-80
2023/11/14 01:47:55;;;;;;;3.80;1.02;;;13.40;90.80;;;;;;4995351;28;20451;-80
2023/11/14 01:50:22;;;;;;;5.20;1.50;;;13.40;90.80;;;;;;5013297;28;20029;-80
2023/11/14 01:52:49;;;;;;;3.65;1.17;;;13.40;90.80;;;;;;4995549;28;20030;-79
2023/11/14 01:55:15;;;;;;;3.97;1.40;;;13.40;90.80;;;;;;5013338;28;20083;-79
2023/11/14 01:57:40;;;;;;;4.53;1.15;;;13.50;90.90;;;;;;4995295;28;20025;-80
2023/11/14 02:00:07;;;;;;;5.55;1.15;;;13.40;90.90;;;;;;4995736;28;20463;-80
2023/11/14 02:02:32;;;;;;;3.65;1.20;;;13.40;90.90;;;;;;4995602;28;20408;-79
2023/11/14 02:04:59;;;;;;;4.97;1.17;;;13.40;90.90;;;;;;4995726;28;20054;-79
2023/11/14 02:07:24;;;;;;;5.35;1.10;;;13.40;90.90;;;;;;4995504;28;20050;-80
2023/11/14 02:09:50;;;;;;;4.22;1.30;;;13.40;90.90;;;;;;5013270;28;20127;-79
2023/11/14 02:12:18;;;;;;;3.72;1.10;;;13.40;90.90;;;;;;4995550;28;20022;-79
2023/11/14 02:14:43;;;;;;;4.95;1.20;;;13.40;90.90;;;;;;4995737;28;20518;-79
2023/11/14 02:17:17;;;;;;;3.70;1.20;;;13.50;90.90;;;;;;5012683;28;20030;-80
2023/11/14 02:19:42;;;;;;;3.90;1.05;;;13.40;90.90;;;;;;4995525;28;20014;-79
2023/11/14 02:22:09;;;;;;;4.20;1.20;;;13.40;90.90;;;;;;4995547;28;20022;-80
2023/11/14 02:24:38;;;;;;;3.00;1.00;;;13.40;90.90;;;;;;4995593;28;20120;-79
2023/11/14 02:27:05;;;;;;;4.13;1.25;;;13.40;90.90;;;;;;4995278;28;20022;-79
2023/11/14 02:29:32;;;;;;;3.38;0.88;;;13.40;90.90;;;;;;4995495;28;20017;-79
2023/11/14 02:31:57;;;;;;;4.50;1.10;;;13.40;90.90;;;;;;5012889;28;20636;-79
2023/11/14 02:34:23;;;;;;;2.67;0.98;;;13.40;90.80;;;;;;4998739;28;20029;-79
2023/11/14 02:36:48;;;;;;;4.53;1.33;;;13.40;90.80;;;;;;5014459;28;20108;-79
2023/11/14 02:39:14;;;;;;;2.33;0.93;;;13.50;90.80;;;;;;5014885;28;20033;-79
2023/11/14 02:41:40;;;;;;;3.47;1.10;;;13.50;90.70;;;;;;5015051;28;20547;-79
2023/11/14 02:44:06;;;;;;;4.40;1.00;;;13.50;90.70;;;;;;5032589;28;20049;-79
2023/11/14 02:46:32;;;;;;;3.47;1.10;;;13.50;90.60;;;;;;5014678;28;20072;-79
2023/11/14 02:49:21;;;;;;;4.38;1.08;;;13.60;90.60;;;;;;5014839;28;20026;-79
2023/11/14 02:51:47;;;;;;;3.67;1.25;;;13.50;90.60;;;;;;5032473;28;20022;-79
2023/11/14 02:54:12;;;;;;;3.90;1.30;;;13.60;90.60;;;;;;5032643;28;20025;-79
2023/11/14 02:56:38;;;;;;;3.78;1.20;;;13.60;90.60;;;;;;5014329;28;20037;-79
2023/11/14 02:59:04;;;;;;;5.03;1.13;;;13.60;90.60;;;;;;5014650;28;20415;-79
2023/11/14 03:01:29;;;;;;;5.15;1.40;;;13.60;90.70;;;;;;5017015;28;20554;-78
2023/11/14 03:03:55;;;;;;;3.70;1.20;;;13.50;90.70;;;;;;5018454;28;20017;-79
2023/11/14 03:06:20;;;;;;;9.38;1.50;;;13.50;90.70;;;;;;5027416;28;20028;-79
2023/11/14 03:08:46;;;;;;;4.35;1.30;;;13.50;90.70;;;;;;5011282;28;20108;-79
2023/11/14 03:11:12;;;;;;;4.82;1.20;;;13.40;90.70;;;;;;5010649;28;20018;-79
2023/11/14 03:13:37;;;;;;;3.75;1.10;;;13.40;90.80;;;;;;4990251;28;20026;-79
2023/11/14 03:16:03;;;;;;;4.50;1.15;;;13.50;90.80;;;;;;4998449;28;20025;-79
2023/11/14 03:18:29;;;;;;;5.28;1.30;;;13.40;90.80;;;;;;4998181;28;20026;-79
2023/11/14 03:20:54;;;;;;;2.83;0.90;;;13.50;90.90;;;;;;4999663;28;20026;-79
2023/11/14 03:23:20;;;;;;;4.55;1.23;;;13.40;90.80;;;;;;5016142;28;20372;-79
2023/11/14 03:25:46;;;;;;;3.67;1.02;;;13.40;90.90;;;;;;4998380;28;20030;-78
2023/11/14 03:28:11;;;;;;;4.20;1.38;;;13.40;90.90;;;;;;4998217;28;20025;-80
2023/11/14 03:30:37;;;;;;;4.50;1.38;;;13.40;90.90;;;;;;4998210;28;20026;-79
2023/11/14 03:33:02;;;;;;;4.75;1.20;;;13.40;90.90;;;;;;4998517;28;20472;-79
2023/11/14 03:35:28;;;;;;;4.63;1.23;;;13.40;90.90;;;;;;4998445;28;20018;-79
2023/11/14 03:37:53;;;;;;;3.60;1.20;;;13.40;90.90;;;;;;4998034;28;20033;-79
2023/11/14 03:40:19;;;;;;;4.35;1.42;;;13.40;90.90;;;;;;5015760;28;20045;-79
2023/11/14 03:42:45;;;;;;;4.38;1.20;;;13.40;91.10;;;;;;5015818;28;20072;-79
2023/11/14 03:45:10;;;;;;;4.45;1.15;;;13.40;90.90;;;;;;4997948;28;20032;-79
2023/11/14 03:47:36;;;;;;;5.00;1.23;;;13.40;90.90;;;;;;4998064;28;20029;-78
2023/11/14 03:50:03;;;;;;;5.30;1.50;;;13.40;90.90;;;;;;4998278;28;20022;-79
2023/11/14 03:52:29;;;;;;;3.33;0.90;;;13.40;90.90;;;;;;5015553;28;20018;-79
2023/11/14 03:54:55;;;;;;;5.22;1.60;;;13.40;90.90;;;;;;4997934;28;20025;-79
2023/11/14 03:57:21;;;;;;;4.13;1.02;;;13.40;90.90;;;;;;4997553;28;20036;-78
2023/11/14 03:59:47;;;;;;;5.00;1.40;;;13.40;90.90;;;;;;5015529;28;20021;-79
2023/11/14 04:02:12;;;;;;;4.97;1.27;;;13.40;91.00;;;;;;4997848;28;20026;-79
2023/11/14 04:04:38;;;;;;;5.32;1.40;;;13.40;91.00;;;;;;5015405;28;20018;-80
2023/11/14 04:07:04;;;;;;;3.88;1.05;;;13.40;91.00;;;;;;4997379;28;20028;-79
2023/11/14 04:09:29;;;;;;;4.13;1.17;;;13.40;90.90;;;;;;5015300;28;20491;-79
2023/11/14 04:11:55;;;;;;;3.20;0.90;;;13.40;90.90;;;;;;4997809;28;20022;-79
2023/11/14 04:14:20;;;;;;;3.28;1.10;;;13.50;90.90;;;;;;4997497;28;20060;-79
2023/11/14 04:16:46;;;;;;;5.28;1.20;;;13.40;90.80;;;;;;5014992;28;20038;-79
2023/11/14 04:19:11;;;;;;;3.22;1.00;;;13.40;90.70;;;;;;4997529;28;20025;-79
2023/11/14 04:21:37;;;;;;;5.50;1.40;;;13.50;90.70;;;;;;4997421;28;20018;-79
2023/11/14 04:24:02;;;;;;;4.70;1.17;;;13.50;90.70;;;;;;4996007;28;20126;-80
2023/11/14 04:26:29;;;;;;;5.35;1.17;;;13.50;90.70;;;;;;4994535;28;20073;-81
2023/11/14 04:39:25;;;;;;;4.65;1.10;;;13.50;90.70;;;;;;5449840;23;20061;-79
2023/11/14 04:43:01;;;;;;;4.30;1.02;;;13.60;90.80;;;;;;5051077;28;20025;-80
2023/11/14 05:06:33;;;;;;;5.18;1.63;;;13.40;90.90;;;;;;4971633;28;20583;-81
2023/11/14 05:09:18;;;;;;;4.18;1.13;;;13.40;91.00;;;;;;4947693;29;20496;-80
2023/11/14 05:11:43;;;;;;;5.32;1.60;;;13.40;91.00;;;;;;4962384;28;20034;-81
2023/11/14 05:14:12;;;;;;;4.85;1.20;;;13.50;91.00;;;;;;5006304;28;20018;-80
2023/11/14 05:16:44;;;;;;;4.15;1.10;;;13.50;91.00;;;;;;5011075;28;20028;-80
2023/11/14 05:19:10;;;;;;;5.35;1.42;;;13.20;90.90;;;;;;4994520;28;20022;-80
2023/11/14 05:21:54;;;;;;;4.45;1.30;;;13.40;91.00;;;;;;5000796;28;20013;-79
2023/11/14 05:24:36;;;;;;;4.95;1.25;;;13.40;91.00;;;;;;5030649;28;20361;-80
2023/11/14 05:27:07;;;;;;;6.85;1.40;;;13.50;91.00;;;;;;5011477;28;20313;-80
2023/11/14 05:29:35;;;;;;;5.20;1.07;;;13.40;91.00;;;;;;5031847;28;20017;-81
2023/11/14 05:32:00;;;;;;;4.32;1.20;;;13.40;91.00;;;;;;5047200;28;21043;-80
2023/11/14 05:34:28;;;;;;;4.78;1.17;;;13.50;91.00;;;;;;5033179;28;20023;-81
2023/11/14 05:36:57;;;;;;;5.70;1.52;;;13.20;90.90;;;;;;5032042;28;20044;-79
2023/11/14 05:39:25;;;;;;;5.25;1.30;;;13.40;91.00;;;;;;5033197;28;20111;-79
2023/11/14 05:41:53;;;;;;;5.03;1.33;;;13.40;91.00;;;;;;5049701;28;20024;-80
2023/11/14 05:44:18;;;;;;;3.67;1.10;;;13.40;91.00;;;;;;5029246;28;20049;-80
2023/11/14 05:46:44;;;;;;;3.83;1.00;;;13.40;91.00;;;;;;5020663;28;20545;-80
2023/11/14 05:49:13;;;;;;;3.67;1.13;;;14.70;91.30;;;;;;5021052;28;20387;-79
2023/11/14 05:51:39;;;;;;;4.10;1.30;;;13.40;90.90;;;;;;5030168;28;20025;-78
2023/11/14 05:54:08;;;;;;;4.60;1.10;;;13.50;90.90;;;;;;5016979;28;20029;-78
2023/11/14 05:56:33;;;;;;;5.15;1.40;;;13.50;90.80;;;;;;5037186;28;20112;-78
2023/11/14 05:58:59;;;;;;;3.67;1.10;;;13.50;90.70;;;;;;5020492;28;20109;-79
2023/11/14 06:01:24;;;;;;;3.92;1.00;;;13.60;90.70;;;;;;5019505;28;20025;-79
2023/11/14 06:03:53;;;;;;;3.97;1.40;;;14.10;90.80;;;;;;5019259;28;20048;-78
2023/11/14 06:06:18;;;;;;;5.80;1.58;;;13.60;90.70;;;;;;5012497;28;20506;-80
2023/11/14 06:08:44;;;;;;;5.53;1.42;;;13.50;90.60;;;;;;5011881;28;20030;-79
2023/11/14 06:11:09;;;;;;;3.50;1.13;;;13.50;90.60;;;;;;5012500;28;20087;-81
2023/11/14 06:13:35;;;;;;;3.22;1.10;;;13.50;90.60;;;;;;5012045;28;20084;-78
2023/11/14 06:16:01;;;;;;;5.20;1.30;;;13.50;90.70;;;;;;5012226;28;20116;-81
2023/11/14 06:18:30;;;;;;;4.50;1.08;;;13.40;90.70;;;;;;5012148;28;20174;-80
2023/11/14 06:20:59;;;;;;;4.22;1.20;;;13.50;90.70;;;;;;5012285;28;20522;-79
2023/11/14 06:23:25;;;;;;;7.28;1.65;;;13.40;90.80;;;;;;5012812;28;20033;-80
2023/11/14 06:25:51;;;;;;;5.82;1.55;;;13.40;90.80;;;;;;5012749;28;20467;-80
2023/11/14 06:28:17;;;;;;;5.57;1.40;;;13.40;90.80;;;;;;5012295;28;20572;-78
2023/11/14 06:30:42;;;;;;;6.57;1.60;;;13.40;90.80;;;;;;5011937;28;20485;-78
2023/11/14 06:33:08;;;;;;;6.30;1.38;;;13.40;90.80;;;;;;5014686;28;20036;-80
2023/11/14 06:35:33;;;;;;;6.30;1.38;;;13.40;90.90;;;;;;5018095;28;20062;-76
2023/11/14 06:37:59;;;;;;;6.18;1.48;;;13.40;90.90;;;;;;5018429;28;20052;-79
2023/11/14 06:40:24;;;;;;;6.32;1.65;;;13.40;91.20;;;;;;5018324;28;20440;-79
2023/11/14 06:42:50;;;;;;;4.75;1.13;;;13.40;90.90;;;;;;5018292;28;20423;-78
2023/11/14 06:45:17;;;;;;;5.68;1.30;;;13.30;90.90;;;;;;5018399;28;20502;-80
2023/11/14 06:47:43;;;;;;;6.95;1.83;;;13.40;91.00;;;;;;5018096;28;20047;-79
2023/11/14 06:50:08;;;;;;;5.28;1.38;;;13.40;91.00;;;;;;5018266;28;20484;-79
2023/11/14 06:52:34;;;;;;;5.40;1.35;;;13.40;91.00;;;;;;5018384;28;20032;-79
2023/11/14 06:54:59;;;;;;;4.22;1.25;;;13.40;91.00;;;;;;5036105;28;20021;-81
2023/11/14 06:57:25;;;;;;;5.60;1.27;;;13.30;90.90;;;;;;5017806;28;20042;-79
2023/11/14 06:59:51;;;;;;;5.80;1.42;;;13.40;91.00;;;;;;5018448;28;20025;-79
2023/11/14 07:02:16;;;;;;;5.25;1.27;;;13.30;91.00;;;;;;5018304;28;20559;-79
2023/11/14 07:04:42;;;;;;;5.13;1.38;;;13.40;91.00;;;;;;5035933;28;20025;-79
2023/11/14 07:07:07;;;;;;;5.88;1.25;;;13.30;91.00;;;;;;5017801;28;20079;-79
2023/11/14 07:09:34;;;;;;;4.18;1.30;;;13.40;91.00;;;;;;5018143;28;20030;-79
2023/11/14 07:11:59;;;;;;;4.53;1.30;;;13.40;91.00;;;;;;5018364;28;20033;-79
2023/11/14 07:14:26;;;;;;;4.65;1.40;;;13.40;91.00;;;;;;5018043;28;20025;-81
2023/11/14 07:16:52;;;;;;;5.80;1.42;;;13.30;91.00;;;;;;5017752;28;20121;-79
2023/11/14 07:19:18;;;;;;;5.85;1.40;;;13.40;91.00;;;;;;5035755;28;20022;-79
2023/11/14 07:21:46;;;;;;;4.85;1.30;;;13.30;91.00;;;;;;5035585;28;20025;-79
2023/11/14 07:24:12;;;;;;;5.43;1.20;;;13.40;91.00;;;;;;5017927;28;20112;-79
2023/11/14 07:26:38;;;;;;;4.00;1.35;;;13.30;91.00;;;;;;5035226;28;20030;-79
2023/11/14 07:29:04;;;;;;;4.95;1.30;;;13.40;91.00;;;;;;5017833;28;20025;-79
2023/11/14 07:31:30;;;;;;;4.65;1.20;;;13.40;90.90;;;;;;5017617;28;20083;-79
2023/11/14 07:33:55;;;;;;;5.13;1.48;;;13.40;90.90;;;;;;5017671;28;20029;-79
2023/11/14 07:36:22;;;;;;;4.85;1.13;;;13.50;91.00;;;;;;5017519;28;20087;-78
2023/11/14 07:38:47;;;;;;;3.80;1.08;;;13.40;90.70;;;;;;5030195;28;20022;-79
2023/11/14 07:41:13;;;;;;;5.18;1.30;;;13.50;90.70;;;;;;4997888;28;20033;-79
2023/11/14 07:43:39;;;;;;;4.72;1.38;;;13.50;90.70;;;;;;4997936;28;20738;-79
2023/11/14 07:46:09;;;;;;;5.20;1.15;;;13.50;90.70;;;;;;4997579;28;20711;-79
2023/11/14 07:48:38;;;;;;;4.45;1.40;;;13.50;90.70;;;;;;4997388;28;20120;-79
2023/11/14 07:51:04;;;;;;;5.65;1.30;;;13.50;90.70;;;;;;5015250;28;20018;-79
2023/11/14 07:53:29;;;;;;;5.00;1.60;;;13.40;90.70;;;;;;4997839;28;20407;-79
2023/11/14 07:55:55;;;;;;;6.05;1.45;;;13.40;90.80;;;;;;4997918;28;20022;-79
2023/11/14 07:58:24;;;;;;;8.05;1.52;;;13.40;91.00;;;;;;4997205;28;20117;-79
2023/11/14 08:00:51;;;;;;;4.20;1.40;;;13.40;90.80;;;;;;4997555;28;20376;-79
2023/11/14 08:03:16;;;;;;;6.72;1.30;;;13.40;90.90;;;;;;4997560;28;20022;-79
2023/11/14 08:05:42;;;;;;;4.65;1.35;;;13.40;90.90;;;;;;5014945;28;20039;-79
2023/11/14 08:08:08;;;;;;;5.45;1.50;;;13.40;90.90;;;;;;4997353;28;20480;-79
2023/11/14 08:10:35;;;;;;;5.03;1.38;;;13.40;90.90;;;;;;5014810;28;20033;-79
2023/11/14 08:13:01;;;;;;;4.55;1.40;;;13.40;90.90;;;;;;5014872;28;20072;-79
2023/11/14 08:15:26;;;;;;;4.32;1.00;;;13.40;91.20;;;;;;5014786;28;20030;-79
2023/11/14 08:17:52;;;;;;;4.68;1.25;;;13.40;91.00;;;;;;5014590;28;20108;-79
2023/11/14 08:20:17;;;;;;;3.13;0.85;;;13.40;91.00;;;;;;4997364;28;20028;-79
2023/11/14 08:22:43;;;;;;;3.60;1.00;;;13.40;91.00;;;;;;5014650;28;20026;-79
2023/11/14 08:25:09;;;;;;;6.30;1.50;;;13.40;91.00;;;;;;4997183;28;20022;-79
2023/11/14 08:27:34;;;;;;;5.75;1.10;;;13.30;91.00;;;;;;4996865;28;20031;-79
2023/11/14 08:30:00;;;;;;;5.20;1.40;;;13.40;91.00;;;;;;4996999;28;20026;-79
2023/11/14 08:32:25;;;;;;;7.50;1.80;;;13.30;91.00;;;;;;4996971;28;20029;-79
2023/11/14 08:34:51;;;;;;;4.53;1.30;;;13.30;91.00;;;;;;4996945;28;20029;-79
2023/11/14 08:37:16;;;;;;;4.72;1.30;;;13.30;91.00;;;;;;4996555;28;20025;-79
2023/11/14 08:39:42;;;;;;;4.60;1.30;;;13.30;91.00;;;;;;4996805;28;20026;-78
2023/11/14 08:42:11;;;;;;;4.97;1.50;;;13.40;91.00;;;;;;4996737;28;20026;-79
2023/11/14 08:44:38;;;;;;;5.25;1.20;;;13.30;91.00;;;;;;4996707;28;20029;-80
2023/11/14 08:47:04;;;;;;;5.97;1.35;;;13.30;91.00;;;;;;5014243;28;20097;-79
2023/11/14 08:49:30;;;;;;;5.78;1.50;;;13.40;91.00;;;;;;5013684;28;20068;-77
2023/11/14 08:51:55;;;;;;;5.95;1.63;;;13.30;91.00;;;;;;5014192;28;20583;-79
2023/11/14 08:54:21;;;;;;;4.30;1.05;;;13.30;91.00;;;;;;4996722;28;20547;-79
2023/11/14 08:56:46;;;;;;;5.80;1.27;;;13.30;91.00;;;;;;4996453;28;20029;-79
2023/11/14 08:59:15;;;;;;;4.03;1.30;;;13.40;91.00;;;;;;4995805;28;20030;-79
2023/11/14 09:01:41;;;;;;;4.22;1.20;;;13.30;91.00;;;;;;4996250;28;20025;-78
2023/11/14 09:04:10;;;;;;;3.78;1.27;;;13.40;91.00;;;;;;4996454;28;20026;-79
2023/11/14 09:06:36;;;;;;;3.45;1.10;;;13.40;91.00;;;;;;5001369;28;20065;-79
2023/11/14 09:09:02;;;;;;;4.50;1.10;;;13.40;90.90;;;;;;5032325;28;20025;-79
2023/11/14 09:11:27;;;;;;;5.25;1.33;;;13.40;90.80;;;;;;5032311;28;20032;-79
2023/11/14 09:13:56;;;;;;;5.25;1.50;;;13.50;90.80;;;;;;5032367;28;20392;-79
2023/11/14 09:16:23;;;;;;;5.00;1.35;;;13.50;90.80;;;;;;5032078;28;20025;-79
2023/11/14 09:18:48;;;;;;;3.92;1.15;;;13.50;90.70;;;;;;5033077;28;20470;-78
2023/11/14 09:21:14;;;;;;;3.95;1.00;;;13.50;90.70;;;;;;5033184;28;20018;-79
2023/11/14 09:23:39;;;;;;;5.93;1.45;;;13.50;90.70;;;;;;5033338;28;20022;-79
2023/11/14 09:26:07;;;;;;;4.80;1.23;;;13.50;90.70;;;;;;5032111;28;20030;-79
2023/11/14 09:28:34;;;;;;;5.40;1.20;;;13.50;90.80;;;;;;5031793;28;20057;-79
2023/11/14 09:31:02;;;;;;;3.90;1.30;;;13.50;90.80;;;;;;5032182;28;20144;-80
2023/11/14 09:33:27;;;;;;;4.20;1.20;;;13.40;90.80;;;;;;5032050;28;20017;-78
2023/11/14 09:35:53;;;;;;;4.95;1.30;;;13.40;90.80;;;;;;5031824;28;20112;-79
2023/11/14 09:38:18;;;;;;;6.43;1.40;;;13.40;90.90;;;;;;5031650;28;20103;-79
2023/11/14 09:40:44;;;;;;;3.60;1.20;;;13.40;90.90;;;;;;5031897;28;20022;-79
2023/11/14 09:43:10;;;;;;;5.53;1.35;;;13.40;90.90;;;;;;5031883;28;20045;-79
2023/11/14 09:45:36;;;;;;;4.65;1.23;;;13.40;90.90;;;;;;5033105;28;20052;-79
2023/11/14 09:48:08;;;;;;;4.22;1.10;;;13.40;91.00;;;;;;5032851;28;20092;-79
2023/11/14 09:50:34;;;;;;;4.28;1.30;;;13.40;91.00;;;;;;5032623;28;20049;-79
2023/11/14 09:53:04;;;;;;;4.18;1.20;;;13.40;91.00;;;;;;5031744;28;20025;-79
2023/11/14 09:55:29;;;;;;;4.50;1.10;;;13.40;91.00;;;;;;5032950;28;20060;-79
2023/11/14 09:57:55;;;;;;;4.25;1.10;;;13.40;91.00;;;;;;5031261;28;20065;-79
2023/11/14 10:00:22;;;;;;;6.38;1.60;;;13.40;91.00;;;;;;5031771;28;20053;-79
2023/11/14 10:02:48;;;;;;;4.50;1.27;;;13.30;91.00;;;;;;5032791;28;20030;-79
2023/11/14 10:05:14;;;;;;;5.93;1.63;;;13.40;91.00;;;;;;5032799;28;20034;-79
2023/11/14 10:07:40;;;;;;;5.22;1.30;;;13.40;91.00;;;;;;5031191;28;20030;-78
2023/11/14 10:10:06;;;;;;;3.92;1.08;;;13.40;91.00;;;;;;5031382;28;20151;-79
2023/11/14 10:12:36;;;;;;;5.20;1.33;;;13.40;91.00;;;;;;5032725;28;20522;-79
2023/11/14 10:15:03;;;;;;;4.93;1.20;;;13.30;91.00;;;;;;5031315;28;20033;-79
2023/11/14 10:17:59;;;;;;;6.13;1.52;;;13.40;91.00;;;;;;5031172;28;20025;-79
2023/11/14 10:20:37;;;;;;;3.88;1.25;;;13.40;91.00;;;;;;5015167;28;20111;-80
2023/11/14 10:23:04;;;;;;;4.85;1.38;;;13.40;91.00;;;;;;5032597;28;20029;-79
2023/11/14 10:25:31;;;;;;;5.32;1.42;;;13.40;91.00;;;;;;5031308;28;20022;-79
2023/11/14 10:28:04;;;;;;;5.47;1.33;;;13.40;91.00;;;;;;5032372;28;20026;-79
2023/11/14 10:30:45;;;;;;;4.63;1.40;;;13.40;91.00;;;;;;5031328;28;20399;-79
2023/11/14 10:33:12;;;;;;;5.22;1.27;;;13.40;91.00;;;;;;5031412;28;20046;-79
2023/11/14 10:35:40;;;;;;;4.15;1.23;;;13.40;91.00;;;;;;5032571;28;20030;-79
2023/11/14 10:38:17;;;;;;;4.35;1.13;;;13.40;91.00;;;;;;5030872;28;20056;-79
2023/11/14 10:40:44;;;;;;;4.18;1.27;;;13.40;91.00;;;;;;5031110;28;20021;-79
2023/11/14 10:43:10;;;;;;;4.30;1.10;;;13.40;91.00;;;;;;5031182;28;20018;-79
2023/11/14 10:45:38;;;;;;;4.82;1.05;;;13.50;91.00;;;;;;5031035;28;20048;-79
2023/11/14 10:48:04;;;;;;;5.47;1.00;;;13.40;90.90;;;;;;5030928;28;20032;-79
2023/11/14 10:50:31;;;;;;;4.40;1.30;;;13.50;90.90;;;;;;5030550;28;20483;-79
2023/11/14 10:52:59;;;;;;;4.18;1.35;;;13.50;90.80;;;;;;5031039;28;20030;-79
2023/11/14 10:55:25;;;;;;;5.78;1.40;;;13.50;90.80;;;;;;5032070;28;20022;-78
2023/11/14 10:57:53;;;;;;;4.65;1.30;;;13.50;90.70;;;;;;5030664;28;20121;-79
2023/11/14 11:00:22;;;;;;;4.63;1.38;;;13.50;90.70;;;;;;5032028;28;20028;-79
2023/11/14 11:02:53;;;;;;;4.95;1.10;;;13.50;90.70;;;;;;5031090;28;20483;-79
2023/11/14 11:05:27;;;;;;;4.40;1.27;;;13.50;90.70;;;;;;5030967;28;20060;-79
2023/11/14 11:07:52;;;;;;;3.90;1.38;;;13.50;90.80;;;;;;5031999;28;20483;-79
2023/11/14 11:10:18;;;;;;;3.47;1.40;;;13.50;90.80;;;;;;5030910;28;20079;-79
2023/11/14 11:12:45;;;;;;;5.78;1.30;;;13.40;90.80;;;;;;5030698;28;20021;-79
2023/11/14 11:15:11;;;;;;;3.40;1.13;;;13.50;90.90;;;;;;5030959;28;20025;-79
2023/11/14 11:17:41;;;;;;;4.38;1.20;;;13.40;91.10;;;;;;5030232;28;20033;-78
2023/11/14 11:20:09;;;;;;;4.97;1.63;;;13.40;90.90;;;;;;5030852;28;20120;-79
2023/11/14 11:23:08;;;;;;;3.97;0.90;;;13.40;91.00;;;;;;5021501;28;20454;-79
2023/11/14 11:25:44;;;;;;;6.25;1.40;;;13.40;91.00;;;;;;5017982;28;20052;-79
2023/11/14 11:28:19;;;;;;;5.20;1.30;;;13.40;91.00;;;;;;5017505;28;20026;-79
2023/11/14 11:31:14;;;;;;;4.65;1.45;;;13.40;91.00;;;;;;5017724;28;20049;-79
2023/11/14 11:33:44;;;;;;;4.13;1.20;;;13.40;91.00;;;;;;5035202;28;20021;-80
2023/11/14 11:36:25;;;;;;;4.68;1.27;;;13.40;91.00;;;;;;5017723;28;20025;-79
2023/11/14 11:38:54;;;;;;;4.40;1.20;;;13.40;91.00;;;;;;5017344;28;20032;-79
2023/11/14 11:41:20;;;;;;;3.47;1.13;;;13.40;91.00;;;;;;5017477;28;20025;-79
2023/11/14 11:44:05;;;;;;;6.22;1.33;;;13.40;91.10;;;;;;5017660;28;20025;-79
2023/11/14 11:46:35;;;;;;;3.72;1.10;;;13.40;91.10;;;;;;5035112;28;20021;-79
2023/11/14 11:49:10;;;;;;;5.00;1.27;;;13.40;91.00;;;;;;5016967;28;20084;-79
2023/11/14 11:51:36;;;;;;;5.28;1.15;;;13.40;91.00;;;;;;5034970;28;20033;-79
2023/11/14 11:54:27;;;;;;;4.20;1.23;;;13.40;91.00;;;;;;5035184;28;20076;-80
2023/11/14 11:57:05;;;;;;;4.78;1.05;;;13.40;91.00;;;;;;5016790;28;20147;-79
2023/11/14 11:59:53;;;;;;;4.85;1.40;;;13.40;91.00;;;;;;5017238;28;20509;-81
2023/11/14 12:02:23;;;;;;;4.50;1.25;;;13.40;91.00;;;;;;4969752;28;20045;-80
2023/11/14 12:04:51;;;;;;;4.65;1.20;;;13.40;91.00;;;;;;5017152;28;20024;-78
2023/11/14 12:07:18;;;;;;;6.13;1.48;;;13.40;91.00;;;;;;5016759;28;20021;-79
2023/11/14 12:09:45;;;;;;;4.35;1.13;;;13.40;91.00;;;;;;5017178;28;20048;-79
2023/11/14 12:12:12;;;;;;;3.85;1.15;;;13.40;91.00;;;;;;5017015;28;20022;-79
2023/11/14 12:14:38;;;;;;;3.35;1.08;;;13.40;91.00;;;;;;5017167;28;20017;-79
2023/11/14 12:17:06;;;;;;;3.92;1.15;;;13.40;91.00;;;;;;5034341;28;20075;-78
2023/11/14 12:19:32;;;;;;;4.32;1.30;;;13.40;91.00;;;;;;5017089;28;20029;-78
2023/11/14 12:21:58;;;;;;;2.83;1.00;;;13.40;90.90;;;;;;5034627;28;20100;-78
2023/11/14 12:24:23;;;;;;;2.85;1.00;;;13.40;90.90;;;;;;5016848;28;20022;-78
2023/11/14 12:26:49;;;;;;;4.68;1.40;;;13.50;90.90;;;;;;5016533;28;20017;-78
2023/11/14 12:29:15;;;;;;;3.03;1.00;;;13.50;90.80;;;;;;5034516;28;20038;-78
2023/11/14 12:31:47;;;;;;;4.60;1.38;;;13.50;90.80;;;;;;5016668;28;20028;-79
2023/11/14 12:34:28;;;;;;;5.20;1.33;;;13.50;90.70;;;;;;5015442;28;20040;-79
2023/11/14 12:37:07;;;;;;;3.75;1.10;;;13.50;90.70;;;;;;5016324;28;20030;-79
2023/11/14 12:39:33;;;;;;;4.05;1.08;;;13.50;91.00;;;;;;5016680;28;20049;-79
2023/11/14 12:41:59;;;;;;;4.10;1.15;;;13.60;90.80;;;;;;5016518;28;20018;-78
2023/11/14 12:44:24;;;;;;;5.28;1.10;;;13.50;90.80;;;;;;5016494;28;20025;-78
2023/11/14 12:46:54;;;;;;;3.78;1.10;;;13.50;90.80;;;;;;5016112;28;20055;-78
2023/11/14 12:49:22;;;;;;;3.55;1.13;;;13.50;90.80;;;;;;5016072;28;20029;-80
2023/11/14 12:51:54;;;;;;;3.22;1.10;;;13.50;90.80;;;;;;5016398;28;20021;-79
2023/11/14 12:54:22;;;;;;;3.83;1.15;;;13.50;90.90;;;;;;5016200;28;20538;-79
2023/11/14 12:56:48;;;;;;;4.20;1.10;;;13.50;90.90;;;;;;5016050;28;20030;-78
2023/11/14 12:59:15;;;;;;;3.30;1.10;;;13.50;90.90;;;;;;5016067;28;20099;-78
2023/11/14 13:01:43;;;;;;;3.58;1.02;;;13.50;90.90;;;;;;5016495;28;20056;-78
2023/11/14 13:04:10;;;;;;;5.32;1.33;;;13.40;90.90;;;;;;5015986;28;20025;-79
2023/11/14 13:06:37;;;;;;;5.80;1.33;;;13.40;90.90;;;;;;5033639;28;20471;-78
2023/11/14 13:09:04;;;;;;;4.38;1.10;;;13.40;90.90;;;;;;5033818;28;20026;-78
2023/11/14 13:11:30;;;;;;;3.95;1.10;;;13.40;90.90;;;;;;5015907;28;20541;-78
2023/11/14 13:13:56;;;;;;;3.30;1.08;;;13.40;91.00;;;;;;5015947;28;20158;-79
2023/11/14 13:16:23;;;;;;;4.40;1.10;;;13.40;91.00;;;;;;5015923;28;20193;-80
2023/11/14 13:18:48;;;;;;;3.67;1.00;;;13.40;91.00;;;;;;5015704;28;20541;-78
2023/11/14 13:21:15;;;;;;;3.67;1.20;;;13.40;91.00;;;;;;5033570;28;20104;-79